createdAt,value
2022-12-11T00:00:20.991Z,10.50
2022-12-11T00:03:23.822Z,8.53
2022-12-11T00:06:26.717Z,10.60
2022-12-11T00:09:29.821Z,10.32
2022-12-11T00:12:32.887Z,10.35
2022-12-11T00:15:37.911Z,6.00
2022-12-11T00:18:40.903Z,9.33
2022-12-11T00:21:43.760Z,8.85
2022-12-11T00:24:46.583Z,8.05
2022-12-11T00:27:49.352Z,6.90
2022-12-11T00:30:52.314Z,7.13
2022-12-11T00:33:55.062Z,6.67
2022-12-11T00:36:59.309Z,6.30
2022-12-11T00:40:02.209Z,6.93
2022-12-11T00:43:06.480Z,8.20
2022-12-11T00:46:10.169Z,7.60
2022-12-11T00:49:13.235Z,7.30
2022-12-11T00:52:18.075Z,6.80
2022-12-11T00:55:21.123Z,7.85
2022-12-11T00:58:24.237Z,3.97
2022-12-11T01:01:27.701Z,4.60
2022-12-11T01:04:30.658Z,5.13
2022-12-11T01:07:33.392Z,3.85
2022-12-11T01:10:36.323Z,5.43
2022-12-11T01:13:40.727Z,4.35
2022-12-11T01:16:43.595Z,4.93
2022-12-11T01:19:46.740Z,5.67
2022-12-11T01:22:53.775Z,3.95
2022-12-11T01:25:56.571Z,4.03
2022-12-11T01:28:59.547Z,6.13
2022-12-11T01:32:02.301Z,4.73
2022-12-11T01:35:07.333Z,5.67
2022-12-11T01:38:10.563Z,5.10
2022-12-11T01:41:14.064Z,3.53
2022-12-11T01:44:16.949Z,3.13
2022-12-11T01:47:19.835Z,4.50
2022-12-11T01:50:23.063Z,3.70
2022-12-11T01:53:32.566Z,4.18
2022-12-11T01:56:37.626Z,4.13
2022-12-11T01:59:43.729Z,2.92
2022-12-11T02:02:46.655Z,6.03
2022-12-11T02:05:49.960Z,2.90
2022-12-11T02:08:52.698Z,3.50
2022-12-11T02:11:58.528Z,2.67
2022-12-11T02:15:19.370Z,3.55
2022-12-11T02:18:44.515Z,5.53
2022-12-11T02:21:51.606Z,4.67
2022-12-11T02:25:19.513Z,2.15
2022-12-11T02:28:47.251Z,4.38
2022-12-11T02:32:15.299Z,4.25
2022-12-11T02:35:24.345Z,3.93
2022-12-11T02:38:32.911Z,5.03
2022-12-11T02:41:36.412Z,5.60
2022-12-11T02:44:40.726Z,5.50
2022-12-11T02:47:48.005Z,4.07
2022-12-11T02:50:57.410Z,4.87
2022-12-11T02:54:01.217Z,4.93
2022-12-11T02:57:09.446Z,4.57
2022-12-11T03:00:13.162Z,3.38
2022-12-11T03:03:16.579Z,6.20
2022-12-11T03:06:24.764Z,5.27
2022-12-11T03:09:29.721Z,5.13
2022-12-11T03:12:37.149Z,4.25
2022-12-11T03:16:03.511Z,5.63
2022-12-11T03:19:06.625Z,5.72
2022-12-11T03:22:14.031Z,4.27
2022-12-11T03:25:22.365Z,4.70
2022-12-11T03:28:56.483Z,5.28
2022-12-11T03:32:23.270Z,4.68
2022-12-11T03:35:31.706Z,4.97
2022-12-11T03:39:09.663Z,6.53
2022-12-11T03:42:14.657Z,5.73
2022-12-11T03:45:19.597Z,7.75
2022-12-11T03:48:24.927Z,6.40
2022-12-11T03:51:31.286Z,10.88
2022-12-11T03:54:35.607Z,7.73
2022-12-11T03:57:39.010Z,7.57
2022-12-11T04:00:42.102Z,8.45
2022-12-11T04:03:44.898Z,8.57
2022-12-11T04:06:47.711Z,9.60
2022-12-11T04:09:50.598Z,11.37
2022-12-11T04:12:53.484Z,7.80
2022-12-11T04:15:56.300Z,10.10
2022-12-11T04:19:17.675Z,7.32
2022-12-11T04:22:38.819Z,8.85
2022-12-11T04:25:41.628Z,8.90
2022-12-11T04:28:45.894Z,10.47
2022-12-11T04:31:48.672Z,10.13
2022-12-11T04:34:51.507Z,13.05
2022-12-11T04:37:54.382Z,9.90
2022-12-11T04:41:02.475Z,10.13
2022-12-11T04:44:05.919Z,10.97
2022-12-11T04:47:08.717Z,12.68
2022-12-11T04:50:18.396Z,12.02
2022-12-11T04:53:21.286Z,13.30
2022-12-11T04:56:24.115Z,10.93
2022-12-11T04:59:26.989Z,13.30
2022-12-11T05:02:29.867Z,10.82
2022-12-11T05:05:32.723Z,13.50
2022-12-11T05:08:37.413Z,10.80
2022-12-11T05:11:40.827Z,13.37
2022-12-11T05:14:44.838Z,11.90
2022-12-11T05:17:48.154Z,12.45
2022-12-11T05:20:58.555Z,11.65
2022-12-11T05:24:01.552Z,11.32
2022-12-11T05:27:04.459Z,10.37
2022-12-11T05:30:08.159Z,12.17
2022-12-11T05:33:11.018Z,14.43
2022-12-11T05:36:19.910Z,13.50
2022-12-11T05:39:22.810Z,14.80
2022-12-11T05:42:29.003Z,12.50
2022-12-11T05:45:33.080Z,10.73
2022-12-11T05:48:36.595Z,14.38
2022-12-11T05:51:39.860Z,14.30
2022-12-11T05:54:42.828Z,14.07
2022-12-11T05:57:45.603Z,12.17
2022-12-11T06:00:49.755Z,12.30
2022-12-11T06:03:54.161Z,13.40
2022-12-11T06:06:56.972Z,14.50
2022-12-11T06:10:00.023Z,14.40
2022-12-11T06:13:02.997Z,15.63
2022-12-11T06:16:08.101Z,13.83
2022-12-11T06:19:18.689Z,14.73
2022-12-11T06:22:22.573Z,13.27
2022-12-11T06:25:25.534Z,14.02
2022-12-11T06:28:28.343Z,15.60
2022-12-11T06:31:31.213Z,16.20
2022-12-11T06:34:34.559Z,18.77
2022-12-11T06:37:38.099Z,13.88
2022-12-11T06:40:41.689Z,16.75
2022-12-11T06:43:45.112Z,14.53
2022-12-11T06:46:47.920Z,15.60
2022-12-11T06:49:50.719Z,19.02
2022-12-11T06:52:53.754Z,16.80
2022-12-11T06:55:56.515Z,16.80
2022-12-11T06:59:04.239Z,14.37
2022-12-11T07:02:20.432Z,17.33
2022-12-11T07:05:23.972Z,14.38
2022-12-11T07:08:29.348Z,15.82
2022-12-11T07:11:32.395Z,17.00
2022-12-11T07:14:35.529Z,17.20
2022-12-11T07:17:38.399Z,16.97
2022-12-11T07:20:41.606Z,18.92
2022-12-11T07:23:44.670Z,18.30
2022-12-11T07:26:47.644Z,18.00
2022-12-11T07:29:51.215Z,22.50
2022-12-11T07:32:54.124Z,24.07
2022-12-11T07:35:56.980Z,27.88
2022-12-11T07:39:02.175Z,21.55
2022-12-11T07:42:05.018Z,25.50
2022-12-11T07:45:08.728Z,20.63
2022-12-11T07:48:12.911Z,23.40
2022-12-11T07:51:26.545Z,21.70
2022-12-11T07:54:29.689Z,26.70
2022-12-11T07:57:32.476Z,28.77
2022-12-11T08:00:36.472Z,17.93
2022-12-11T08:03:40.246Z,21.27
2022-12-11T08:06:43.866Z,20.40
2022-12-11T08:09:46.851Z,19.67
2022-12-11T08:12:49.682Z,21.13
2022-12-11T08:15:54.800Z,23.53
2022-12-11T08:18:58.435Z,20.40
2022-12-11T08:22:02.332Z,20.42
2022-12-11T08:25:05.661Z,23.33
2022-12-11T08:28:08.578Z,22.10
2022-12-11T08:31:13.897Z,23.10
2022-12-11T08:34:16.671Z,23.50
2022-12-11T08:37:19.463Z,23.17
2022-12-11T08:40:22.202Z,23.92
2022-12-11T08:43:25.256Z,24.67
2022-12-11T08:46:31.531Z,16.00
2022-12-11T08:49:34.817Z,18.77
2022-12-11T08:52:37.662Z,21.48
2022-12-11T08:55:40.851Z,24.40
2022-12-11T08:58:44.606Z,20.13
2022-12-11T09:01:47.488Z,20.90
2022-12-11T09:04:50.767Z,23.40
2022-12-11T09:07:53.603Z,24.98
2022-12-11T09:10:56.545Z,20.42
2022-12-11T09:14:05.146Z,18.25
2022-12-11T09:17:09.906Z,17.97
2022-12-11T09:20:12.743Z,20.23
2022-12-11T09:23:17.602Z,22.70
2022-12-11T09:26:21.639Z,18.20
2022-12-11T09:29:25.386Z,16.80
2022-12-11T09:32:28.477Z,19.00
2022-12-11T09:35:31.301Z,25.23
2022-12-11T09:38:34.993Z,21.17
2022-12-11T09:41:47.328Z,22.95
2022-12-11T09:45:00.737Z,15.18
2022-12-11T09:48:03.690Z,16.83
2022-12-11T09:51:18.966Z,16.77
2022-12-11T09:54:21.880Z,17.40
2022-12-11T09:57:27.506Z,17.05
2022-12-11T10:01:22.848Z,18.45
2022-12-11T10:04:56.511Z,17.83
2022-12-11T10:08:36.824Z,18.57
2022-12-11T10:12:12.721Z,21.17
2022-12-11T10:15:30.788Z,16.25
2022-12-11T10:18:34.369Z,17.58
2022-12-11T10:21:41.740Z,18.77
2022-12-11T10:25:11.619Z,17.70
2022-12-11T10:28:20.551Z,17.58
2022-12-11T10:31:29.827Z,17.05
2022-12-11T10:34:40.425Z,18.67
2022-12-11T10:37:43.189Z,13.17
2022-12-11T10:41:12.665Z,18.20
2022-12-11T10:44:27.359Z,18.73
2022-12-11T10:47:30.325Z,17.95
2022-12-11T10:50:34.124Z,21.40
2022-12-11T10:53:37.121Z,16.13
2022-12-11T10:56:39.971Z,14.50
2022-12-11T10:59:50.593Z,13.88
2022-12-11T11:02:53.745Z,23.42
2022-12-11T11:06:23.429Z,18.58
2022-12-11T11:09:36.402Z,17.47
2022-12-11T11:12:42.511Z,15.53
2022-12-11T11:15:45.563Z,22.05
2022-12-11T11:18:54.850Z,19.65
2022-12-11T11:22:19.551Z,16.10
2022-12-11T11:25:28.845Z,15.33
2022-12-11T11:28:38.136Z,22.47
2022-12-11T11:31:42.538Z,22.15
2022-12-11T11:34:45.430Z,25.05
2022-12-11T11:38:00.839Z,21.75
2022-12-11T11:41:21.291Z,14.70
2022-12-11T11:44:49.810Z,16.77
2022-12-11T11:48:18.153Z,21.92
2022-12-11T11:51:40.408Z,18.27
2022-12-11T11:55:18.485Z,14.73
2022-12-11T11:58:45.241Z,16.33
2022-12-11T12:01:48.106Z,16.80
2022-12-11T12:04:51.671Z,27.20
2022-12-11T12:08:06.661Z,39.70
2022-12-11T12:11:12.764Z,41.08
2022-12-11T12:18:04.052Z,71.67
2022-12-11T12:21:17.520Z,48.92
2022-12-11T12:24:59.932Z,32.85
2022-12-11T12:28:23.996Z,56.55
2022-12-11T12:31:57.801Z,28.43
2022-12-11T12:35:12.916Z,19.80
2022-12-11T12:38:33.064Z,19.73
2022-12-11T12:42:17.268Z,18.15
2022-12-11T12:45:48.698Z,17.85
2022-12-11T12:48:55.246Z,16.77
2022-12-11T12:51:59.131Z,16.77
2022-12-11T12:55:14.607Z,18.08
2022-12-11T12:58:27.163Z,17.73
2022-12-11T13:01:31.836Z,16.48
2022-12-11T13:04:55.866Z,12.70
2022-12-11T13:08:05.303Z,14.03
2022-12-11T13:11:11.481Z,17.73
2022-12-11T13:14:14.344Z,18.25
2022-12-11T13:17:20.140Z,17.80
2022-12-11T13:20:29.159Z,12.83
2022-12-11T13:23:34.946Z,15.10
2022-12-11T13:26:37.757Z,16.80
2022-12-11T13:29:42.367Z,12.52
2022-12-11T13:32:57.257Z,13.95
2022-12-11T13:36:25.071Z,19.30
2022-12-11T13:39:31.154Z,15.10
2022-12-11T13:42:47.795Z,16.58
2022-12-11T13:45:53.741Z,18.55
2022-12-11T13:49:02.663Z,19.42
2022-12-11T13:52:07.411Z,18.27
2022-12-11T13:55:22.112Z,21.00
2022-12-11T13:58:25.305Z,19.35
2022-12-11T14:01:33.478Z,17.88
2022-12-11T14:04:37.993Z,15.98
2022-12-11T14:07:49.333Z,16.30
2022-12-11T14:10:55.907Z,16.40
2022-12-11T14:14:01.886Z,14.27
2022-12-11T14:17:04.953Z,17.10
2022-12-11T14:20:20.661Z,18.10
2022-12-11T14:23:27.112Z,16.73
2022-12-11T14:26:33.101Z,17.60
2022-12-11T14:29:35.910Z,20.00
2022-12-11T14:32:45.269Z,18.48
2022-12-11T14:35:50.895Z,16.02
2022-12-11T14:38:57.840Z,15.70
2022-12-11T14:42:15.584Z,16.07
2022-12-11T14:45:30.957Z,16.58
2022-12-11T14:48:45.012Z,16.20
2022-12-11T14:51:49.556Z,17.02
2022-12-11T14:54:58.214Z,19.70
2022-12-11T14:58:26.609Z,14.23
2022-12-11T15:01:37.964Z,19.70
2022-12-11T15:04:40.926Z,20.92
2022-12-11T15:07:54.912Z,20.58
2022-12-11T15:11:04.418Z,16.93
2022-12-11T15:14:12.587Z,15.23
2022-12-11T15:17:16.334Z,15.10
2022-12-11T15:20:30.546Z,17.60
2022-12-11T15:23:40.420Z,14.25
2022-12-11T15:26:48.126Z,12.50
2022-12-11T15:29:50.960Z,16.53
2022-12-11T15:33:12.163Z,24.63
2022-12-11T15:36:30.332Z,22.85
2022-12-11T15:39:33.528Z,20.65
2022-12-11T15:42:40.127Z,26.87
2022-12-11T15:45:43.633Z,43.93
2022-12-11T15:48:48.923Z,32.03
2022-12-11T15:51:52.563Z,22.90
2022-12-11T15:54:55.337Z,19.17
2022-12-11T15:58:02.022Z,11.57
2022-12-11T16:01:05.158Z,20.33
2022-12-11T16:04:08.444Z,20.17
2022-12-11T16:07:22.999Z,15.82
2022-12-11T16:10:27.238Z,16.55
2022-12-11T16:13:30.152Z,18.17
2022-12-11T16:16:33.249Z,18.87
2022-12-11T16:19:37.281Z,15.90
2022-12-11T16:22:40.063Z,18.83
2022-12-11T16:25:44.183Z,18.48
2022-12-11T16:28:47.007Z,15.13
2022-12-11T16:31:49.916Z,17.77
2022-12-11T16:34:53.068Z,16.95
2022-12-11T16:37:57.396Z,19.15
2022-12-11T16:41:01.865Z,18.45
2022-12-11T16:44:05.225Z,16.13
2022-12-11T16:47:08.029Z,14.70
2022-12-11T16:50:14.230Z,16.08
2022-12-11T16:53:17.710Z,15.90
2022-12-11T16:56:20.606Z,16.70
2022-12-11T16:59:24.047Z,16.27
2022-12-11T17:02:26.925Z,14.63
2022-12-11T17:05:30.056Z,12.32
2022-12-11T17:08:33.199Z,11.10
2022-12-11T17:11:36.132Z,14.35
2022-12-11T17:14:39.266Z,14.10
2022-12-11T17:17:43.452Z,19.77
2022-12-11T17:20:46.587Z,15.80
2022-12-11T17:23:50.904Z,16.05
2022-12-11T17:26:55.646Z,15.80
2022-12-11T17:29:59.606Z,17.37
2022-12-11T17:33:03.021Z,20.57
2022-12-11T17:36:07.913Z,15.48
2022-12-11T17:39:10.752Z,16.67
2022-12-11T17:42:13.970Z,14.65
2022-12-11T17:45:17.320Z,17.93
2022-12-11T17:48:22.856Z,14.87
2022-12-11T17:51:26.158Z,16.98
2022-12-11T17:54:29.326Z,13.85
2022-12-11T17:57:32.519Z,14.43
2022-12-11T18:00:42.553Z,13.57
2022-12-11T18:03:45.441Z,13.67
2022-12-11T18:06:48.305Z,16.35
2022-12-11T18:09:51.307Z,14.20
2022-12-11T18:12:54.313Z,16.48
2022-12-11T18:16:11.779Z,17.17
2022-12-11T18:19:15.961Z,16.47
2022-12-11T18:22:19.722Z,19.75
2022-12-11T18:25:22.672Z,17.48
2022-12-11T18:28:27.918Z,11.05
2022-12-11T18:31:30.939Z,14.93
2022-12-11T18:34:34.188Z,17.97
2022-12-11T18:37:38.257Z,17.52
2022-12-11T18:40:41.984Z,14.85
2022-12-11T18:43:45.783Z,16.40
2022-12-11T18:46:50.299Z,17.13
2022-12-11T18:49:53.988Z,17.60
2022-12-11T18:52:57.282Z,16.27
2022-12-11T18:56:00.938Z,14.55
2022-12-11T18:59:04.961Z,13.57
2022-12-11T19:02:08.300Z,14.37
2022-12-11T19:05:12.630Z,14.80
2022-12-11T19:08:16.858Z,14.98
2022-12-11T19:11:22.991Z,16.95
2022-12-11T19:14:26.183Z,14.93
2022-12-11T19:17:28.995Z,16.90
2022-12-11T19:20:48.605Z,18.27
2022-12-11T19:23:53.700Z,19.02
2022-12-11T19:26:57.470Z,17.13
2022-12-11T19:30:01.305Z,17.65
2022-12-11T19:33:04.505Z,16.60
2022-12-11T19:36:10.800Z,16.77
2022-12-11T19:39:16.601Z,19.08
2022-12-11T19:42:19.643Z,18.08
2022-12-11T19:45:22.939Z,20.95
2022-12-11T19:48:26.040Z,19.93
2022-12-11T19:51:33.884Z,17.40
2022-12-11T19:54:37.389Z,17.52
2022-12-11T19:57:41.048Z,15.57
2022-12-11T20:00:43.953Z,15.57
2022-12-11T20:03:47.142Z,15.53
2022-12-11T20:06:50.357Z,14.27
2022-12-11T20:09:53.355Z,14.18
2022-12-11T20:12:56.877Z,12.98
2022-12-11T20:16:00.978Z,16.55
2022-12-11T20:19:05.350Z,16.13
2022-12-11T20:22:09.369Z,13.80
2022-12-11T20:25:12.670Z,16.27
2022-12-11T20:28:16.150Z,18.25
2022-12-11T20:31:25.237Z,12.48
2022-12-11T20:34:28.459Z,14.33
2022-12-11T20:37:31.828Z,15.37
2022-12-11T20:40:36.653Z,15.73
2022-12-11T20:43:40.460Z,14.85
2022-12-11T20:46:43.473Z,16.15
2022-12-11T20:49:49.981Z,16.40
2022-12-11T20:52:52.830Z,19.00
2022-12-11T20:55:55.807Z,17.08
2022-12-11T20:59:00.114Z,17.48
2022-12-11T21:02:03.687Z,13.05
2022-12-11T21:05:07.142Z,13.43
2022-12-11T21:08:11.062Z,13.07
2022-12-11T21:11:14.665Z,12.63
2022-12-11T21:14:19.169Z,13.20
2022-12-11T21:17:22.560Z,14.65
2022-12-11T21:20:26.117Z,15.23
2022-12-11T21:23:29.072Z,16.83
2022-12-11T21:26:31.873Z,11.90
2022-12-11T21:29:35.008Z,10.75
2022-12-11T21:32:37.930Z,15.55
2022-12-11T21:35:40.785Z,14.93
2022-12-11T21:38:44.957Z,15.30
2022-12-11T21:41:47.949Z,16.08
2022-12-11T21:48:14.166Z,13.48
2022-12-11T21:51:36.129Z,13.70
2022-12-11T21:54:39.351Z,14.43
2022-12-11T21:57:42.089Z,13.85
2022-12-11T22:00:47.555Z,14.27
2022-12-11T22:03:51.503Z,13.60
2022-12-11T22:06:54.316Z,17.70
2022-12-11T22:09:58.164Z,15.47
2022-12-11T22:13:00.974Z,16.10
2022-12-11T22:16:03.918Z,13.05
2022-12-11T22:19:06.770Z,13.93
2022-12-11T22:22:09.567Z,15.70
2022-12-11T22:25:12.788Z,14.13
2022-12-11T22:28:15.896Z,11.75
2022-12-11T22:31:23.046Z,14.05
2022-12-11T22:34:25.860Z,13.38
2022-12-11T22:37:29.332Z,12.83
2022-12-11T22:40:33.099Z,11.10
2022-12-11T22:43:35.884Z,10.68
2022-12-11T22:46:38.662Z,11.10
2022-12-11T22:49:41.822Z,13.70
2022-12-11T22:52:45.602Z,12.70
2022-12-11T22:55:48.546Z,15.33
2022-12-11T22:58:51.408Z,13.23
2022-12-11T23:01:54.332Z,15.10
2022-12-11T23:04:57.168Z,11.35
2022-12-11T23:08:00.182Z,15.17
2022-12-11T23:11:09.923Z,18.37
2022-12-11T23:14:16.146Z,17.50
2022-12-11T23:17:18.942Z,20.75
2022-12-11T23:20:25.489Z,18.17
2022-12-11T23:23:28.763Z,15.03
2022-12-11T23:26:32.119Z,14.40
2022-12-11T23:29:35.005Z,13.80
2022-12-11T23:32:37.930Z,14.13
2022-12-11T23:35:41.066Z,13.68
2022-12-11T23:38:46.241Z,11.73
2022-12-11T23:41:52.402Z,13.97
2022-12-11T23:44:55.403Z,13.02
2022-12-11T23:47:58.173Z,14.63
2022-12-11T23:51:04.352Z,13.70
2022-12-11T23:54:07.549Z,14.53
2022-12-11T23:57:10.238Z,11.43
